createdAt,value
2023-12-14T00:00:09.516Z,64.28
2023-12-14T00:01:05.585Z,64.07
2023-12-14T00:02:01.617Z,64.07
2023-12-14T00:02:57.610Z,64.18
2023-12-14T00:03:53.684Z,64.07
2023-12-14T00:04:49.671Z,64.18
2023-12-14T00:05:45.730Z,64.07
2023-12-14T00:06:41.755Z,63.87
2023-12-14T00:07:37.864Z,64.28
2023-12-14T00:08:33.847Z,64.07
2023-12-14T00:09:29.879Z,64.28
2023-12-14T00:10:26.923Z,64.07
2023-12-14T00:11:22.959Z,63.98
2023-12-14T00:12:18.982Z,64.07
2023-12-14T00:13:15.030Z,64.18
2023-12-14T00:14:11.126Z,63.87
2023-12-14T00:15:07.094Z,64.07
2023-12-14T00:16:03.123Z,64.18
2023-12-14T00:16:59.224Z,63.87
2023-12-14T00:17:55.303Z,63.98
2023-12-14T00:18:51.326Z,64.28
2023-12-14T00:19:47.419Z,64.37
2023-12-14T00:20:44.422Z,64.81
2023-12-14T00:21:40.474Z,64.07
2023-12-14T00:22:36.773Z,64.37
2023-12-14T00:23:32.515Z,64.18
2023-12-14T00:24:28.544Z,64.07
2023-12-14T00:25:24.574Z,63.90
2023-12-14T00:26:20.614Z,63.87
2023-12-14T00:27:16.633Z,64.58
2023-12-14T00:28:26.821Z,64.11
2023-12-14T00:29:20.032Z,64.11
2023-12-14T00:30:16.136Z,63.98
2023-12-14T00:31:12.071Z,64.07
2023-12-14T00:32:08.205Z,63.90
2023-12-14T00:33:04.293Z,64.78
2023-12-14T00:34:00.340Z,64.11
2023-12-14T00:34:56.313Z,64.61
2023-12-14T00:35:52.432Z,64.37
2023-12-14T00:36:48.648Z,64.61
2023-12-14T00:37:44.724Z,64.51
2023-12-14T00:38:40.748Z,64.51
2023-12-14T00:39:36.766Z,64.01
2023-12-14T00:40:32.831Z,64.71
2023-12-14T00:41:28.833Z,65.21
2023-12-14T00:42:24.860Z,64.51
2023-12-14T00:43:20.875Z,64.61
2023-12-14T00:44:16.995Z,65.01
2023-12-14T00:45:12.998Z,64.51
2023-12-14T00:46:09.030Z,64.61
2023-12-14T00:47:05.117Z,64.61
2023-12-14T00:48:02.194Z,64.61
2023-12-14T00:48:58.170Z,64.61
2023-12-14T00:49:54.246Z,64.40
2023-12-14T00:50:50.250Z,64.61
2023-12-14T00:51:46.271Z,64.11
2023-12-14T00:52:42.420Z,64.61
2023-12-14T00:53:38.433Z,64.31
2023-12-14T00:54:23.630Z,64.51
2023-12-14T00:55:19.698Z,65.21
2023-12-14T00:56:16.397Z,64.51
2023-12-14T00:57:12.732Z,64.51
2023-12-14T00:58:08.755Z,65.31
2023-12-14T00:59:04.884Z,65.11
2023-12-14T01:00:00.963Z,64.91
2023-12-14T01:00:56.984Z,64.21
2023-12-14T01:01:53.021Z,64.40
2023-12-14T01:02:49.046Z,64.21
2023-12-14T01:03:45.079Z,64.61
2023-12-14T01:04:41.137Z,65.21
2023-12-14T01:05:37.155Z,64.91
2023-12-14T01:06:33.203Z,65.11
2023-12-14T01:07:29.281Z,64.61
2023-12-14T01:08:25.290Z,64.51
2023-12-14T01:09:21.353Z,64.40
2023-12-14T01:10:17.366Z,65.21
2023-12-14T01:11:13.619Z,65.11
2023-12-14T01:12:09.512Z,64.51
2023-12-14T01:13:05.538Z,64.61
2023-12-14T01:14:01.633Z,64.91
2023-12-14T01:14:58.632Z,65.01
2023-12-14T01:15:54.688Z,64.61
2023-12-14T01:16:50.746Z,65.01
2023-12-14T01:17:46.837Z,64.40
2023-12-14T01:18:42.910Z,65.11
2023-12-14T01:19:38.842Z,64.71
2023-12-14T01:20:34.829Z,64.21
2023-12-14T01:21:30.863Z,64.21
2023-12-14T01:22:26.958Z,64.51
2023-12-14T01:23:23.041Z,64.51
2023-12-14T01:24:19.006Z,64.51
2023-12-14T01:25:15.057Z,64.40
2023-12-14T01:26:11.177Z,64.21
2023-12-14T01:27:07.102Z,64.21
2023-12-14T01:28:03.155Z,65.71
2023-12-14T01:28:59.189Z,66.61
2023-12-14T01:29:55.207Z,66.41
2023-12-14T01:30:51.295Z,66.61
2023-12-14T01:31:47.290Z,66.91
2023-12-14T01:32:43.348Z,66.78
2023-12-14T01:33:39.419Z,66.52
2023-12-14T01:34:35.469Z,66.88
2023-12-14T01:35:31.470Z,66.71
2023-12-14T01:36:27.504Z,66.78
2023-12-14T01:37:23.540Z,67.02
2023-12-14T01:38:19.564Z,67.22
2023-12-14T01:39:16.638Z,67.22
2023-12-14T01:40:13.683Z,66.78
2023-12-14T01:41:09.722Z,66.61
2023-12-14T01:42:05.754Z,67.02
2023-12-14T01:43:02.779Z,67.32
2023-12-14T01:43:58.886Z,67.02
2023-12-14T01:44:54.837Z,66.91
2023-12-14T01:45:51.870Z,66.91
2023-12-14T01:46:47.936Z,66.61
2023-12-14T01:47:43.988Z,66.61
2023-12-14T01:48:39.944Z,66.82
2023-12-14T01:49:36.022Z,66.91
2023-12-14T01:50:33.101Z,66.41
2023-12-14T01:51:29.130Z,66.41
2023-12-14T01:52:25.173Z,66.71
2023-12-14T01:53:21.227Z,66.82
2023-12-14T01:54:17.251Z,66.61
2023-12-14T01:55:13.277Z,66.91
2023-12-14T01:56:09.422Z,66.91
2023-12-14T01:57:05.347Z,66.82
2023-12-14T01:58:01.377Z,66.91
2023-12-14T01:58:57.444Z,66.52
2023-12-14T01:59:54.471Z,66.61
2023-12-14T02:00:50.542Z,66.41
2023-12-14T02:01:46.644Z,66.21
2023-12-14T02:02:42.588Z,66.61
2023-12-14T02:03:38.665Z,66.52
2023-12-14T02:04:34.741Z,66.21
2023-12-14T02:05:30.789Z,66.61
2023-12-14T02:06:26.774Z,66.52
2023-12-14T02:07:22.769Z,66.61
2023-12-14T02:08:18.805Z,66.41
2023-12-14T02:09:14.822Z,66.61
2023-12-14T02:10:10.844Z,66.31
2023-12-14T02:11:06.994Z,66.41
2023-12-14T02:12:04.034Z,66.31
2023-12-14T02:13:01.019Z,66.52
2023-12-14T02:13:57.088Z,66.31
2023-12-14T02:14:53.108Z,66.41
2023-12-14T02:15:49.123Z,66.52
2023-12-14T02:16:56.554Z,66.11
2023-12-14T02:17:52.580Z,66.41
2023-12-14T02:18:48.540Z,66.52
2023-12-14T02:19:44.623Z,65.51
2023-12-14T02:20:40.580Z,65.71
2023-12-14T02:21:36.663Z,65.61
2023-12-14T02:22:32.964Z,65.61
2023-12-14T02:23:28.696Z,65.81
2023-12-14T02:24:24.719Z,65.61
2023-12-14T02:25:20.794Z,65.61
2023-12-14T02:26:16.908Z,65.61
2023-12-14T02:27:12.923Z,65.91
2023-12-14T02:28:08.993Z,65.71
2023-12-14T02:29:05.195Z,65.71
2023-12-14T02:30:02.114Z,65.91
2023-12-14T02:30:58.234Z,65.64
2023-12-14T02:31:55.253Z,65.74
2023-12-14T02:32:51.377Z,65.81
2023-12-14T02:33:47.322Z,65.94
2023-12-14T02:34:43.373Z,65.94
2023-12-14T02:35:39.388Z,65.91
2023-12-14T02:36:35.403Z,65.71
2023-12-14T02:37:31.448Z,65.81
2023-12-14T02:38:27.576Z,65.91
2023-12-14T02:39:23.537Z,66.11
2023-12-14T02:40:19.586Z,65.94
2023-12-14T02:41:15.679Z,65.71
2023-12-14T02:42:11.680Z,66.24
2023-12-14T02:43:18.964Z,65.91
2023-12-14T02:44:15.078Z,65.84
2023-12-14T02:45:11.047Z,65.74
2023-12-14T02:46:07.059Z,66.05
2023-12-14T02:47:03.146Z,65.71
2023-12-14T02:47:59.206Z,65.74
2023-12-14T02:48:55.191Z,65.84
2023-12-14T02:49:51.291Z,65.94
2023-12-14T02:50:48.409Z,65.94
2023-12-14T02:51:44.450Z,65.94
2023-12-14T02:52:40.726Z,65.94
2023-12-14T02:53:36.556Z,66.14
2023-12-14T02:54:32.594Z,65.74
2023-12-14T02:55:28.607Z,66.11
2023-12-14T02:56:24.649Z,65.64
2023-12-14T02:57:20.693Z,65.74
2023-12-14T02:58:16.752Z,66.44
2023-12-14T02:59:12.854Z,65.24
2023-12-14T03:00:08.826Z,66.05
2023-12-14T03:01:04.886Z,65.74
2023-12-14T03:02:00.927Z,65.34
2023-12-14T03:02:56.918Z,65.71
2023-12-14T03:03:53.095Z,65.74
2023-12-14T03:04:49.068Z,65.94
2023-12-14T03:05:45.113Z,65.74
2023-12-14T03:06:41.103Z,65.74
2023-12-14T03:07:37.168Z,65.74
2023-12-14T03:08:33.189Z,65.74
2023-12-14T03:09:29.233Z,65.44
2023-12-14T03:10:25.264Z,65.74
2023-12-14T03:11:21.275Z,65.44
2023-12-14T03:12:17.299Z,65.64
2023-12-14T03:13:13.354Z,65.94
2023-12-14T03:14:09.388Z,65.44
2023-12-14T03:15:05.452Z,65.74
2023-12-14T03:16:01.503Z,65.44
2023-12-14T03:16:57.534Z,65.74
2023-12-14T03:17:53.598Z,65.34
2023-12-14T03:18:49.568Z,65.24
2023-12-14T03:19:45.623Z,65.34
2023-12-14T03:20:41.246Z,65.54
2023-12-14T03:21:37.279Z,65.44
2023-12-14T03:22:34.729Z,65.34
2023-12-14T03:23:30.560Z,65.44
2023-12-14T03:24:26.649Z,65.44
2023-12-14T03:25:23.620Z,65.54
2023-12-14T03:26:19.711Z,65.24
2023-12-14T03:27:15.775Z,65.34
2023-12-14T03:28:11.796Z,65.24
2023-12-14T03:29:07.846Z,65.34
2023-12-14T03:30:03.835Z,65.54
2023-12-14T03:30:59.897Z,65.44
2023-12-14T03:31:56.037Z,65.14
2023-12-14T03:32:51.990Z,65.17
2023-12-14T03:33:48.148Z,65.24
2023-12-14T03:34:44.080Z,65.37
2023-12-14T03:35:40.099Z,65.77
2023-12-14T03:36:36.122Z,65.04
2023-12-14T03:37:32.188Z,65.47
2023-12-14T03:38:28.192Z,65.44
2023-12-14T03:39:24.231Z,65.04
2023-12-14T03:40:20.267Z,65.47
2023-12-14T03:41:16.318Z,65.04
2023-12-14T03:42:12.328Z,65.07
2023-12-14T03:43:08.403Z,64.94
2023-12-14T03:44:04.451Z,64.94
2023-12-14T03:45:00.462Z,64.47
2023-12-14T03:45:56.508Z,64.54
2023-12-14T03:46:52.609Z,65.14
2023-12-14T03:47:48.674Z,64.94
2023-12-14T03:48:44.686Z,65.24
2023-12-14T03:49:41.708Z,65.17
2023-12-14T03:50:37.712Z,64.84
2023-12-14T03:51:33.742Z,65.04
2023-12-14T03:52:29.757Z,64.54
2023-12-14T03:53:25.790Z,64.54
2023-12-14T03:54:21.903Z,64.43
2023-12-14T03:55:17.916Z,64.37
2023-12-14T03:56:13.971Z,64.57
2023-12-14T03:57:10.005Z,64.64
2023-12-14T03:58:06.099Z,64.54
2023-12-14T03:59:02.152Z,64.57
2023-12-14T03:59:58.147Z,64.54
2023-12-14T04:00:54.232Z,64.64
2023-12-14T04:01:50.297Z,64.43
2023-12-14T04:02:46.304Z,64.57
2023-12-14T04:03:42.337Z,64.57
2023-12-14T04:04:39.390Z,64.57
2023-12-14T04:05:35.479Z,64.27
2023-12-14T04:06:31.450Z,64.47
2023-12-14T04:07:27.539Z,64.97
2023-12-14T04:08:24.568Z,64.97
2023-12-14T04:09:20.569Z,64.97
2023-12-14T04:10:16.602Z,64.97
2023-12-14T04:11:12.711Z,64.67
2023-12-14T04:12:08.666Z,64.67
2023-12-14T04:13:05.723Z,64.87
2023-12-14T04:14:01.828Z,65.37
2023-12-14T04:14:57.761Z,65.27
2023-12-14T04:15:53.790Z,65.17
2023-12-14T04:16:49.882Z,65.07
2023-12-14T04:17:45.937Z,65.17
2023-12-14T04:18:54.272Z,65.27
2023-12-14T04:19:50.253Z,64.57
2023-12-14T04:20:46.259Z,64.37
2023-12-14T04:21:42.296Z,64.17
2023-12-14T04:22:38.752Z,63.96
2023-12-14T04:23:34.379Z,64.77
2023-12-14T04:24:30.439Z,63.96
2023-12-14T04:25:26.459Z,64.07
2023-12-14T04:26:22.498Z,64.37
2023-12-14T04:27:18.548Z,64.17
2023-12-14T04:28:14.562Z,64.07
2023-12-14T04:29:10.623Z,64.27
2023-12-14T04:30:06.731Z,64.27
2023-12-14T04:31:02.725Z,64.17
2023-12-14T04:31:59.781Z,64.07
2023-12-14T04:32:55.805Z,64.07
2023-12-14T04:33:51.839Z,64.27
2023-12-14T04:34:47.934Z,64.57
2023-12-14T04:35:43.935Z,64.47
2023-12-14T04:36:39.997Z,64.37
2023-12-14T04:37:36.027Z,63.93
2023-12-14T04:38:32.067Z,64.27
2023-12-14T04:39:29.103Z,64.67
2023-12-14T04:40:25.122Z,64.43
2023-12-14T04:41:21.204Z,64.43
2023-12-14T04:42:17.195Z,64.14
2023-12-14T04:43:24.503Z,63.73
2023-12-14T04:44:20.629Z,63.90
2023-12-14T04:45:16.600Z,64.11
2023-12-14T04:46:12.637Z,63.70
2023-12-14T04:47:08.696Z,63.50
2023-12-14T04:48:16.107Z,63.50
2023-12-14T04:49:12.158Z,63.50
2023-12-14T04:50:08.206Z,64.21
2023-12-14T04:51:04.145Z,64.11
2023-12-14T04:52:00.189Z,63.40
2023-12-14T04:52:56.278Z,63.31
2023-12-14T04:53:52.267Z,63.10
2023-12-14T04:54:48.298Z,63.28
2023-12-14T04:55:46.035Z,62.87
2023-12-14T04:56:40.406Z,62.77
2023-12-14T04:57:36.418Z,62.87
2023-12-14T04:58:32.494Z,62.87
2023-12-14T04:59:28.530Z,62.57
2023-12-14T05:00:24.556Z,62.94
2023-12-14T05:01:20.610Z,62.11
2023-12-14T05:02:16.823Z,61.64
2023-12-14T05:03:12.659Z,61.84
2023-12-14T05:04:08.763Z,62.04
2023-12-14T05:05:04.847Z,61.84
2023-12-14T05:06:01.901Z,62.64
2023-12-14T05:06:57.811Z,62.84
2023-12-14T05:07:53.880Z,62.74
2023-12-14T05:08:49.898Z,62.94
2023-12-14T05:09:48.458Z,63.14
2023-12-14T05:10:44.518Z,63.24
2023-12-14T05:11:40.507Z,62.44
2023-12-14T05:12:36.790Z,63.34
2023-12-14T05:13:32.670Z,63.11
2023-12-14T05:14:28.640Z,63.04
2023-12-14T05:15:24.742Z,63.61
2023-12-14T05:16:20.797Z,63.45
2023-12-14T05:17:16.861Z,63.81
2023-12-14T05:18:12.947Z,62.81
2023-12-14T05:19:09.993Z,63.42
2023-12-14T05:20:13.677Z,63.61
2023-12-14T05:21:09.689Z,63.92
2023-12-14T05:22:05.738Z,63.42
2023-12-14T05:23:01.288Z,63.11
2023-12-14T05:23:56.773Z,63.42
2023-12-14T05:24:52.320Z,63.31
2023-12-14T05:25:48.370Z,63.31
2023-12-14T05:26:43.957Z,62.98
2023-12-14T05:27:39.488Z,63.42
2023-12-14T05:28:35.083Z,63.51
2023-12-14T05:29:31.060Z,63.21
2023-12-14T05:30:26.683Z,63.21
2023-12-14T05:31:22.173Z,63.42
2023-12-14T05:32:17.845Z,63.01
2023-12-14T05:33:13.569Z,63.42
2023-12-14T05:34:08.947Z,63.61
2023-12-14T05:35:04.584Z,63.31
2023-12-14T11:45:44.388Z,56.70
2023-12-14T11:46:40.493Z,57.10
2023-12-14T11:47:36.813Z,56.60
2023-12-14T11:48:32.655Z,56.60
2023-12-14T11:49:28.914Z,56.70
2023-12-14T11:50:24.812Z,56.80
2023-12-14T11:51:20.848Z,56.60
2023-12-14T11:52:16.817Z,56.90
2023-12-14T11:53:12.939Z,56.70
2023-12-14T11:54:08.926Z,56.90
2023-12-14T11:55:04.929Z,56.90
2023-12-14T11:56:01.079Z,56.70
2023-12-14T11:56:57.133Z,56.70
2023-12-14T11:57:53.190Z,56.70
2023-12-14T11:58:49.300Z,57.10
2023-12-14T11:59:45.279Z,56.70
2023-12-14T12:00:41.460Z,56.50
2023-12-14T12:01:37.406Z,56.70
2023-12-14T12:02:33.445Z,56.60
2023-12-14T12:03:29.714Z,56.40
2023-12-14T12:04:26.367Z,56.80
2023-12-14T12:05:22.533Z,56.80
2023-12-14T12:06:18.374Z,57.00
2023-12-14T12:07:14.536Z,57.10
2023-12-14T12:08:22.537Z,57.10
2023-12-14T12:09:17.904Z,56.70
2023-12-14T12:10:13.901Z,56.60
2023-12-14T12:11:10.006Z,56.80
2023-12-14T12:12:05.998Z,56.60
2023-12-14T12:13:01.981Z,56.40
2023-12-14T12:13:58.092Z,56.90
2023-12-14T12:14:54.124Z,56.50
2023-12-14T12:15:50.236Z,56.23
2023-12-14T12:16:46.277Z,56.20
2023-12-14T12:17:42.426Z,56.40
2023-12-14T12:18:40.906Z,56.30
2023-12-14T12:19:34.435Z,56.40
2023-12-14T12:20:30.598Z,56.70
2023-12-14T12:21:26.546Z,56.50
2023-12-14T12:22:22.601Z,56.40
2023-12-14T12:23:18.753Z,56.20
2023-12-14T12:24:22.255Z,56.40
2023-12-14T12:25:15.617Z,57.30
2023-12-14T12:26:06.967Z,57.30
2023-12-14T12:27:03.977Z,56.20
2023-12-14T12:28:00.003Z,56.40
2023-12-14T12:28:56.196Z,56.20
2023-12-14T12:29:52.123Z,56.23
2023-12-14T12:30:48.287Z,56.20
2023-12-14T12:31:44.334Z,56.20
2023-12-14T12:32:40.365Z,56.40
2023-12-14T12:33:36.334Z,56.60
2023-12-14T12:34:32.402Z,56.30
2023-12-14T12:35:28.817Z,56.20
2023-12-14T12:36:24.569Z,56.83
2023-12-14T12:37:20.605Z,56.70
2023-12-14T12:38:16.667Z,56.50
2023-12-14T12:39:13.749Z,56.60
2023-12-14T12:40:09.793Z,56.30
2023-12-14T12:41:05.864Z,56.30
2023-12-14T12:42:01.926Z,56.30
2023-12-14T12:42:57.930Z,56.20
2023-12-14T12:43:54.062Z,56.70
2023-12-14T12:44:50.097Z,56.30
2023-12-14T12:45:46.200Z,56.80
2023-12-14T12:46:42.238Z,56.30
2023-12-14T12:47:38.629Z,56.30
2023-12-14T12:48:34.479Z,56.90
2023-12-14T12:49:30.517Z,56.30
2023-12-14T12:50:26.499Z,57.10
2023-12-14T12:51:22.436Z,57.20
2023-12-14T12:52:18.586Z,56.70
2023-12-14T12:53:14.698Z,56.90
2023-12-14T12:54:13.416Z,56.90
2023-12-14T12:55:06.713Z,56.40
2023-12-14T12:56:02.894Z,56.60
2023-12-14T12:56:58.860Z,56.63
2023-12-14T12:57:54.925Z,56.50
2023-12-14T12:58:50.997Z,56.80
2023-12-14T12:59:47.052Z,56.73
2023-12-14T13:00:43.064Z,56.60
2023-12-14T13:01:39.204Z,56.60
2023-12-14T13:02:35.158Z,56.80
2023-12-14T13:03:31.227Z,56.80
2023-12-14T13:04:27.363Z,56.50
2023-12-14T13:05:23.479Z,56.50
2023-12-14T13:06:19.606Z,56.30
2023-12-14T13:07:15.544Z,56.20
2023-12-14T13:08:11.651Z,56.23
2023-12-14T13:09:07.590Z,56.40
2023-12-14T13:10:12.406Z,56.30
2023-12-14T13:11:00.696Z,56.20
2023-12-14T13:11:57.716Z,56.23
2023-12-14T13:12:53.860Z,56.50
2023-12-14T13:13:49.886Z,56.50
2023-12-14T13:14:45.956Z,56.60
2023-12-14T13:15:43.057Z,57.10
2023-12-14T13:16:40.191Z,56.80
2023-12-14T13:17:36.628Z,56.50
2023-12-14T13:18:32.273Z,56.33
2023-12-14T13:19:28.198Z,56.30
2023-12-14T13:20:24.451Z,57.00
2023-12-14T13:21:20.499Z,56.20
2023-12-14T13:22:16.704Z,56.40
2023-12-14T13:23:12.533Z,56.30
2023-12-14T13:24:08.594Z,56.30
2023-12-14T13:25:04.635Z,56.50
2023-12-14T13:26:00.773Z,56.20
2023-12-14T13:26:57.026Z,56.70
2023-12-14T13:27:52.939Z,56.60
2023-12-14T13:28:49.133Z,56.50
2023-12-14T13:29:45.057Z,56.50
2023-12-14T13:30:42.273Z,56.60
2023-12-14T13:31:38.216Z,56.50
2023-12-14T13:32:34.364Z,56.40
2023-12-14T13:33:30.396Z,56.30
2023-12-14T13:34:26.462Z,56.40
2023-12-14T13:35:22.556Z,56.90
2023-12-14T13:36:19.601Z,56.50
2023-12-14T13:37:15.650Z,57.10
2023-12-14T13:38:11.747Z,56.40
2023-12-14T13:39:08.832Z,56.20
2023-12-14T13:40:05.894Z,56.80
2023-12-14T13:41:01.628Z,56.30
2023-12-14T13:41:58.710Z,56.20
2023-12-14T13:43:07.772Z,56.40
2023-12-14T13:44:02.170Z,56.70
2023-12-14T13:44:57.955Z,56.50
2023-12-14T13:46:05.472Z,57.10
2023-12-14T13:46:53.819Z,57.10
2023-12-14T13:47:49.625Z,57.30
2023-12-14T13:48:47.117Z,56.60
2023-12-14T13:49:43.025Z,56.30
2023-12-14T13:50:39.072Z,55.50
2023-12-14T13:51:37.684Z,55.90
2023-12-14T13:52:34.892Z,56.00
2023-12-14T13:53:30.976Z,56.80
2023-12-14T13:54:26.967Z,56.60
2023-12-14T13:55:25.454Z,56.50
2023-12-14T13:56:21.661Z,56.50
2023-12-14T13:57:17.774Z,57.30
2023-12-14T13:58:13.845Z,56.50
2023-12-14T13:59:10.019Z,57.00
2023-12-14T14:00:07.151Z,56.30
2023-12-14T14:01:03.742Z,56.30
2023-12-14T14:02:00.772Z,56.30
2023-12-14T14:02:58.052Z,56.30
2023-12-14T14:04:05.398Z,56.50
2023-12-14T14:05:01.252Z,56.83
2023-12-14T14:05:46.668Z,56.50
2023-12-14T14:06:42.776Z,55.90
2023-12-14T14:07:39.834Z,56.30
2023-12-14T14:08:35.870Z,56.80
2023-12-14T14:09:32.723Z,56.50
2023-12-14T14:10:29.267Z,56.10
2023-12-14T14:11:25.690Z,56.30
2023-12-14T14:12:23.596Z,56.10
2023-12-14T14:13:19.636Z,56.20
2023-12-14T14:14:15.799Z,55.90
2023-12-14T14:15:11.718Z,56.00
2023-12-14T14:17:03.805Z,56.30
2023-12-14T14:18:12.200Z,56.20
2023-12-14T14:19:08.658Z,56.30
2023-12-14T14:20:04.732Z,56.50
2023-12-14T14:21:01.329Z,56.20
2023-12-14T14:21:58.495Z,56.63
2023-12-14T14:22:54.804Z,56.20
2023-12-14T14:23:50.805Z,56.30
2023-12-14T14:24:48.059Z,56.50
2023-12-14T14:25:45.011Z,56.20
2023-12-14T14:26:41.394Z,56.40
2023-12-14T14:27:38.260Z,55.70
2023-12-14T14:28:34.312Z,56.30
2023-12-14T14:29:32.452Z,56.40
2023-12-14T14:30:29.152Z,56.30
2023-12-14T14:31:36.389Z,56.40
2023-12-14T14:32:33.511Z,56.23
2023-12-14T14:33:30.545Z,56.20
2023-12-14T14:34:27.690Z,56.00
2023-12-14T14:35:24.888Z,56.13
2023-12-14T14:36:20.605Z,56.30
2023-12-14T14:37:17.711Z,56.00
2023-12-14T14:38:13.798Z,56.10
2023-12-14T14:39:09.767Z,56.20
2023-12-14T14:40:05.953Z,56.50
2023-12-14T14:41:02.022Z,56.20
2023-12-14T14:41:58.005Z,56.10
2023-12-14T14:42:55.183Z,56.30
2023-12-14T14:43:52.247Z,56.20
2023-12-14T14:44:49.283Z,56.10
2023-12-14T14:45:45.434Z,56.00
2023-12-14T14:46:42.526Z,56.30
2023-12-14T14:47:39.437Z,56.43
2023-12-14T14:48:24.721Z,56.13
2023-12-14T14:49:20.822Z,56.13
2023-12-14T14:50:17.788Z,56.60
2023-12-14T14:51:13.788Z,56.23
2023-12-14T14:52:11.881Z,56.83
2023-12-14T14:53:07.946Z,56.33
2023-12-14T14:54:03.967Z,56.60
2023-12-14T14:55:12.154Z,56.30
2023-12-14T14:56:10.788Z,56.20
2023-12-14T14:57:09.338Z,56.30
2023-12-14T14:58:02.822Z,56.10
2023-12-14T14:58:58.983Z,56.20
2023-12-14T14:59:55.992Z,56.43
2023-12-14T15:00:52.089Z,56.10
2023-12-14T15:01:37.269Z,55.10
2023-12-14T15:02:34.972Z,55.00
2023-12-14T15:03:30.461Z,55.10
2023-12-14T15:04:27.106Z,56.10
2023-12-14T15:05:23.505Z,56.00
2023-12-14T15:06:19.751Z,56.20
2023-12-14T15:07:15.733Z,55.90
2023-12-14T15:08:23.132Z,56.00
2023-12-14T15:09:20.093Z,55.60
2023-12-14T15:10:17.156Z,55.90
2023-12-14T15:11:13.239Z,56.30
2023-12-14T15:12:09.309Z,56.20
2023-12-14T15:12:55.467Z,56.10
2023-12-14T15:13:51.537Z,56.20
2023-12-14T15:14:49.575Z,56.00
2023-12-14T15:15:45.632Z,56.30
2023-12-14T15:16:41.680Z,56.30
2023-12-14T15:17:37.783Z,56.60
2023-12-14T15:18:33.765Z,56.20
2023-12-14T15:19:30.828Z,56.60
2023-12-14T15:20:26.877Z,56.20
2023-12-14T15:21:22.839Z,56.23
2023-12-14T15:22:19.946Z,56.20
2023-12-14T15:23:17.019Z,56.40
2023-12-14T15:24:13.077Z,56.23
2023-12-14T15:25:20.395Z,56.30
2023-12-14T15:26:16.580Z,56.20
2023-12-14T15:27:13.587Z,55.82
2023-12-14T15:28:09.576Z,56.40
2023-12-14T15:29:05.677Z,56.30
2023-12-14T15:30:01.728Z,55.50
2023-12-14T15:30:57.782Z,55.43
2023-12-14T15:31:54.838Z,55.70
2023-12-14T15:32:50.967Z,55.60
2023-12-14T15:33:48.111Z,55.10
2023-12-14T15:34:44.005Z,55.10
2023-12-14T15:35:51.307Z,55.60
2023-12-14T15:36:47.507Z,55.80
2023-12-14T15:37:43.591Z,56.02
2023-12-14T15:38:39.682Z,55.90
2023-12-14T15:39:35.693Z,55.70
2023-12-14T15:40:31.753Z,56.30
2023-12-14T15:41:27.843Z,55.80
2023-12-14T15:42:23.978Z,56.10
2023-12-14T15:43:19.959Z,55.82
2023-12-14T15:44:16.051Z,55.90
2023-12-14T15:45:12.138Z,56.10
2023-12-14T15:46:08.192Z,56.10
2023-12-14T15:46:53.421Z,56.40
2023-12-14T15:47:49.417Z,56.30
2023-12-14T15:48:34.608Z,56.02
2023-12-14T15:49:30.615Z,56.30
2023-12-14T15:50:26.725Z,56.20
2023-12-14T15:51:23.789Z,56.10
2023-12-14T15:52:19.810Z,56.00
2023-12-14T15:53:15.972Z,55.90
2023-12-14T15:54:11.927Z,56.00
2023-12-14T15:55:08.954Z,56.00
2023-12-14T15:56:05.056Z,56.10
2023-12-14T15:57:01.094Z,56.30
2023-12-14T15:57:57.189Z,55.70
2023-12-14T15:58:53.329Z,56.70
2023-12-14T15:59:49.274Z,56.30
2023-12-14T16:00:45.388Z,56.40
2023-12-14T16:01:41.417Z,56.30
2023-12-14T16:02:37.748Z,56.02
2023-12-14T16:03:22.699Z,56.40
2023-12-14T16:04:18.701Z,56.43
2023-12-14T16:05:14.833Z,56.30
2023-12-14T16:06:10.874Z,56.10
2023-12-14T16:07:06.866Z,56.00
2023-12-14T16:08:04.036Z,56.02
2023-12-14T16:09:00.079Z,56.23
2023-12-14T16:09:56.124Z,56.20
2023-12-14T16:10:52.342Z,56.50
2023-12-14T16:11:49.227Z,55.80
2023-12-14T16:12:45.306Z,56.00
2023-12-14T16:13:41.511Z,56.00
2023-12-14T16:14:37.385Z,55.90
2023-12-14T16:15:33.438Z,56.30
2023-12-14T16:16:29.443Z,56.20
2023-12-14T16:17:25.591Z,56.20
2023-12-14T16:18:22.650Z,56.20
2023-12-14T16:19:19.639Z,56.00
2023-12-14T16:20:16.738Z,56.10
2023-12-14T16:21:12.688Z,56.10
2023-12-14T16:22:08.743Z,56.00
2023-12-14T16:23:06.000Z,56.20
2023-12-14T16:24:03.208Z,56.70
2023-12-14T16:24:59.117Z,56.52
2023-12-14T16:25:55.170Z,56.60
2023-12-14T16:27:02.447Z,56.23
2023-12-14T16:27:58.594Z,56.02
2023-12-14T16:28:54.634Z,55.80
2023-12-14T16:29:50.608Z,56.73
2023-12-14T16:30:46.750Z,56.20
2023-12-14T16:31:42.776Z,56.23
2023-12-14T16:32:39.021Z,56.30
2023-12-14T16:33:35.021Z,56.20
2023-12-14T16:34:30.976Z,56.30
2023-12-14T16:35:27.028Z,55.60
2023-12-14T16:36:34.253Z,56.50
2023-12-14T16:37:30.303Z,55.70
2023-12-14T16:38:26.366Z,56.10
2023-12-14T16:39:22.402Z,55.80
2023-12-14T16:40:18.452Z,55.70
2023-12-14T16:41:14.577Z,55.90
2023-12-14T16:41:59.641Z,55.90
2023-12-14T16:42:57.682Z,56.10
2023-12-14T16:43:53.833Z,55.80
2023-12-14T16:44:49.807Z,55.90
2023-12-14T16:45:46.409Z,55.30
2023-12-14T16:46:42.458Z,55.50
2023-12-14T16:47:39.504Z,55.40
2023-12-14T16:48:37.360Z,55.30
2023-12-14T16:49:42.850Z,55.60
2023-12-14T16:50:38.868Z,55.60
2023-12-14T16:51:34.927Z,55.40
2023-12-14T16:52:31.069Z,54.90
2023-12-14T16:53:27.026Z,55.30
2023-12-14T16:54:23.128Z,55.30
2023-12-14T16:55:19.216Z,55.60
2023-12-14T16:56:15.272Z,55.80
2023-12-14T16:57:11.305Z,55.30
2023-12-14T16:58:08.415Z,55.70
2023-12-14T16:59:04.480Z,55.50
2023-12-14T17:00:01.461Z,55.60
2023-12-14T17:00:57.553Z,55.20
2023-12-14T17:02:04.873Z,55.10
2023-12-14T17:03:00.860Z,55.00
2023-12-14T17:03:56.913Z,55.07
2023-12-14T17:04:42.157Z,54.90
2023-12-14T17:05:39.190Z,55.07
2023-12-14T17:06:35.263Z,55.80
2023-12-14T17:07:31.337Z,55.60
2023-12-14T17:08:27.401Z,55.70
2023-12-14T17:09:23.426Z,55.40
2023-12-14T17:10:20.508Z,55.30
2023-12-14T17:11:16.738Z,55.40
2023-12-14T17:12:23.950Z,56.10
2023-12-14T17:13:20.025Z,56.30
2023-12-14T17:14:16.137Z,56.40
2023-12-14T17:15:12.114Z,56.60
2023-12-14T17:16:08.198Z,56.10
2023-12-14T17:17:04.728Z,55.67
2023-12-14T17:18:00.357Z,55.57
2023-12-14T17:18:56.591Z,55.90
2023-12-14T17:19:52.557Z,56.00
2023-12-14T17:20:37.743Z,56.10
2023-12-14T17:21:33.743Z,56.20
2023-12-14T17:22:29.805Z,56.30
2023-12-14T17:23:25.894Z,56.10
2023-12-14T17:24:21.912Z,56.00
2023-12-14T17:25:17.967Z,56.30
2023-12-14T17:26:15.064Z,56.00
2023-12-14T17:27:11.230Z,56.40
2023-12-14T17:28:07.169Z,56.50
2023-12-14T17:29:03.262Z,56.20
2023-12-14T17:29:59.221Z,56.98
2023-12-14T17:30:55.342Z,57.40
2023-12-14T17:31:51.375Z,58.11
2023-12-14T17:32:47.506Z,57.60
2023-12-14T17:33:43.042Z,57.48
2023-12-14T17:34:39.529Z,57.60
2023-12-14T17:35:35.656Z,57.57
2023-12-14T17:36:31.596Z,57.78
2023-12-14T17:37:27.884Z,58.28
2023-12-14T17:38:24.194Z,57.37
2023-12-14T17:39:22.177Z,57.40
2023-12-14T17:40:18.234Z,57.98
2023-12-14T17:41:25.640Z,58.28
2023-12-14T17:42:21.158Z,58.28
2023-12-14T17:43:17.142Z,57.90
2023-12-14T17:44:12.740Z,58.30
2023-12-14T17:45:09.245Z,57.90
2023-12-14T17:45:54.442Z,58.11
2023-12-14T17:46:50.523Z,58.11
2023-12-14T17:47:46.663Z,58.07
2023-12-14T17:48:43.707Z,58.28
2023-12-14T17:49:39.630Z,58.18
2023-12-14T17:50:35.764Z,58.87
2023-12-14T17:51:33.753Z,58.87
2023-12-14T17:52:31.062Z,58.98
2023-12-14T17:53:27.148Z,58.81
2023-12-14T17:54:24.059Z,58.68
2023-12-14T17:55:20.111Z,59.48
2023-12-14T17:56:16.160Z,59.41
2023-12-14T17:57:11.827Z,59.28
2023-12-14T17:58:07.929Z,59.08
2023-12-14T17:59:15.359Z,59.00
2023-12-14T18:00:11.298Z,58.78
2023-12-14T18:01:07.493Z,59.08
2023-12-14T18:02:03.520Z,58.78
2023-12-14T18:02:59.687Z,59.08
2023-12-14T18:03:55.904Z,58.78
2023-12-14T18:04:41.972Z,59.08
2023-12-14T18:05:38.624Z,59.08
2023-12-14T18:06:34.636Z,58.87
2023-12-14T18:07:30.786Z,58.98
2023-12-14T18:08:27.993Z,58.98
2023-12-14T18:09:25.107Z,58.98
2023-12-14T18:10:22.104Z,59.28
2023-12-14T18:11:18.513Z,59.18
2023-12-14T18:12:14.213Z,58.87
2023-12-14T18:13:10.409Z,58.98
2023-12-14T18:14:06.615Z,58.78
2023-12-14T18:15:03.566Z,59.78
2023-12-14T18:15:59.149Z,60.08